Home > Products > Valid Products > TAF

000
FTUS44 KMEG 252052 AAB
TAFMEM
TAF AMD
KMEM 252052Z 2521/2618 34008KT P6SM VCTS BKN035CB BKN150
      TEMPO 2521/2522 2SM TSRA BKN018CB
     FM260100 19005KT P6SM BKN045 BKN250
     FM261500 19009KT P6SM VCTS SCT025CB BKN050=



000
FTUS44 KMEG 251929 CCA
TAFMEM
TAF COR
KMEM 251929Z 2519/2618 21009G18KT P6SM VCTS BKN035CB BKN150
      TEMPO 2519/2521 VRB15G30KT 5SM TSRA BKN025CB
     FM260100 19005KT P6SM BKN045 BKN250
     FM261500 19009KT P6SM VCTS SCT025CB BKN050=



000
FTUS44 KMEG 251929 AAA
TAFMEM
TAF AMD
KMEM 251929Z 2519/2618 21009G18KT P6SM VCTS BKN035CB BKN150
      TEMPO 2519/2521 VRB15G30KT 5SM TSRA BKN035CB
     FM260100 19005KT P6SM BKN045 BKN250
     FM261500 19009KT P6SM VCTS SCT025CB BKN050=



000
FTUS44 KMEG 251736
TAFMEM
TAF
KMEM 251736Z 2518/2618 19010G18KT P6SM BKN015 BKN060 BKN250
     FM251900 21010G18KT P6SM VCTS BKN035CB BKN150
      TEMPO 2520/2522 VRB15G30KT 5SM TSRA BKN035CB
     FM260100 19005KT P6SM BKN045 BKN250
     FM261500 19009KT P6SM VCTS SCT025CB BKN050=



000
FTUS44 KMEG 251736
TAFTUP
TAF
KTUP 251736Z 2518/2618 13011G16KT P6SM SCT050 BKN250
     FM252200 20004KT P6SM SCT050 BKN250
     FM261300 22007KT P6SM SCT025 BKN050
      TEMPO 2613/2615 BKN025=



000
FTUS44 KMEG 251736
TAFJBR
TAF
KJBR 251736Z 2518/2618 20011G18KT P6SM VCTS SCT040CB BKN150
      TEMPO 2519/2521 VRB15G30KT 5SM TSRA BKN040CB
     FM252300 19008KT P6SM SCT040 BKN250
     FM261300 20007KT P6SM VCTS SCT025CB BKN050=



000
FTUS44 KMEG 251736
TAFMKL
TAF
KMKL 251736Z 2518/2618 23010G19KT P6SM VCTS SCT040CB BKN150
      TEMPO 2522/2524 VRB15G30KT 5SM TSRA BKN040CB
     FM260000 16005KT P6SM SCT040 BKN250
     FM261500 19008KT P6SM VCTS SCT025CB BKN050=



000
FTUS44 KMEG 251641 AAC
TAFMEM
TAF AMD
KMEM 251641Z 2517/2612 19010G18KT P6SM BKN015 BKN060 BKN250
     FM251900 21010G18KT P6SM VCTS BKN035CB BKN150
      TEMPO 2519/2521 VRB15G30KT 5SM TSRA BKN035CB
     FM252300 18008KT P6SM VCSH SCT040 BKN150=



000
FTUS44 KMEG 251500 AAB
TAFMEM
TAF AMD
KMEM 251500Z 2515/2612 21010G18KT P6SM VCTS BKN035CB BKN150
      TEMPO 2518/2520 VRB15G30KT 5SM TSRA BKN035CB
     FM252300 18008KT P6SM VCSH SCT040 BKN150=



000
FTUS44 KMEG 251402 AAA
TAFMEM
TAF AMD
KMEM 251402Z 2514/2612 20007KT P6SM BKN040 BKN250
     FM251500 19010G16KT P6SM VCTS SCT040CB BKN150
      TEMPO 2517/2521 VRB15G30KT 5SM TSRA BKN040CB
     FM252300 18008KT P6SM VCSH SCT040 BKN150=



000
FTUS44 KMEG 250522
TAFJBR
TAF
KJBR 250522Z 2506/2606 16007KT P6SM VCSH SCT007 BKN120
      TEMPO 2509/2513 BKN007
     FM251500 20014G22KT P6SM VCTS SCT040CB BKN150
      TEMPO 2516/2520 VRB15G30KT 5SM TSRA BKN040CB
     FM252200 19010KT P6SM VCSH SCT040 BKN150=



000
FTUS44 KMEG 250522
TAFTUP
TAF
KTUP 250522Z 2506/2606 17005KT P6SM BKN150
     FM251600 19010KT P6SM SCT050 BKN250
     FM252200 18006KT P6SM VCSH SCT050 BKN150=



000
FTUS44 KMEG 250522
TAFMKL
TAF
KMKL 250522Z 2506/2606 VRB03KT P6SM VCSH SCT007 BKN100
     FM250800 19005KT P6SM FEW007 SCT090 BKN150
     FM251700 19012KT P6SM VCTS SCT040CB BKN150
      TEMPO 2518/2522 VRB15G30KT 5SM TSRA BKN040CB
     FM260000 16005KT P6SM VCSH SCT100 BKN250=



000
FTUS44 KMEG 250522
TAFMEM
TAF
KMEM 250522Z 2506/2606 17008KT P6SM FEW007 BKN120
     FM251600 19012G18KT P6SM VCTS SCT040CB BKN150
      TEMPO 2517/2521 VRB15G30KT 5SM TSRA BKN040CB
     FM252300 19010KT P6SM VCSH SCT040 BKN150=



000
FTUS44 KMEG 250202 AAA
TAFJBR
TAF AMD
KJBR 250202Z 2502/2524 18005KT P6SM -TSRA BKN080CB OVC110
     FM250500 VRB03KT P6SM VCSH SCT080 BKN150
     FM251500 20015G25KT P6SM VCTS SCT040CB BKN200=



000
FTUS44 KMEG 242147 AAC
TAFJBR
TAF AMD
KJBR 242147Z 2422/2518 13010KT 3SM TSRA BKN045CB OVC060
      TEMPO 2422/2501 VRB15G30KT 1SM +TSRA BKN015CB OVC045
     FM250100 18006KT P6SM VCSH SCT045 BKN150
     FM251500 20010KT P6SM VCSH SCT050 BKN200=



000
FTUS44 KMEG 242112 AAB
TAFJBR
TAF AMD
KJBR 242112Z 2421/2518 13010KT P6SM VCTS SCT045CB BKN150
      TEMPO 2421/2424 VRB15G30KT 2SM TSRA BKN045CB OVC060
     FM250100 18006KT P6SM SCT045 BKN150
     FM251500 20010KT P6SM VCSH SCT050 BKN200=



000
FTUS44 KMEG 242104 CCA
TAFMEM
TAF COR
KMEM 242104Z 2421/2518 16010KT P6SM FEW050 BKN250
     FM250000 18007KT P6SM VCTS SCT040CB BKN090
     FM250300 18007KT P6SM SCT040 SCT150
     FM251500 18009KT P6SM VCSH SCT050 BKN200=



000
FTUS44 KMEG 241502 AAA
TAFMEM
TAF AMD
KMEM 241502Z 2415/2512 20008KT P6SM FEW100 SCT250
     FM241800 20009KT P6SM VCSH SCT045 BKN150
     FM250000 18006KT P6SM VCTS SCT040CB BKN090
     FM250400 18006KT P6SM VCSH SCT040 BKN150=



000
FTUS44 KMEG 240258 AAA
TAFMEM
TAF AMD
KMEM 240258Z 2403/2424 15005KT P6SM SCT150 BKN250
     FM241500 19008KT P6SM VCSH SCT045 BKN120
      TEMPO 2416/2420 -SHRA BKN045
     FM242300 18006KT P6SM VCSH BKN040 OVC090=



000
FTUS44 KMEG 231121
TAFJBR
TAF
KJBR 231121Z 2312/2412 00000KT P6SM SKC
     FM231500 18007KT P6SM SKC
     FM240000 17004KT P6SM SKC
     FM240600 00000KT P6SM OVC250=



000
FTUS44 KMEG 231121
TAFTUP
TAF
KTUP 231121Z 2312/2412 00000KT P6SM SKC
     FM231500 20005KT P6SM SKC
     FM240000 00000KT P6SM SKC=



000
FTUS44 KMEG 231121
TAFMKL
TAF
KMKL 231121Z 2312/2412 00000KT P6SM SKC
     FM231500 23004KT P6SM SKC
     FM240000 00000KT P6SM SKC
     FM240600 00000KT P6SM SCT250=



000
FTUS44 KMEG 231121
TAFMEM
TAF
KMEM 231121Z 2312/2412 00000KT P6SM SCT250
     FM231500 19006KT P6SM SKC
     FM240000 16005KT P6SM SKC
     FM240600 17004KT P6SM BKN250=



000
FTUS44 KMEG 230529
TAFTUP
TAF
KTUP 230529Z 2306/2406 00000KT P6SM SKC
     FM231500 VRB04KT P6SM SKC
     FM240000 00000KT P6SM SKC=



000
FTUS44 KMEG 230529
TAFMKL
TAF
KMKL 230529Z 2306/2406 00000KT P6SM SKC
     FM231500 VRB04KT P6SM SKC
     FM240000 00000KT P6SM SKC=



000
FTUS44 KMEG 230529
TAFJBR
TAF
KJBR 230529Z 2306/2406 00000KT P6SM SKC
     FM231500 19007KT P6SM SKC
     FM240000 17003KT P6SM SKC=



000
FTUS44 KMEG 230529
TAFMEM
TAF
KMEM 230529Z 2306/2406 00000KT P6SM SKC
     FM231500 17007KT P6SM SKC
     FM240000 15005KT P6SM SKC=



    US Dept of Commerce
    National Oceanic and Atmospheric Administration
    National Weather Service
    1325 East West Highway
    Silver Spring, MD 20910
    Page Author: NWS Internet Services Team
Disclaimer
Information Quality
Credits
Glossary
Privacy Policy
Freedom of Information Act (FOIA)
About Us
Career Opportunities